Time;durP1;ratioP1;P1;durP2;ratioP2;P2;SDS_P1;SDS_P2;PMS_P1;PMS_P2;Temp;Humidity;BMP_temperature;BMP_pressure;BME280_temperature;BME280_humidity;BME280_pressure;Samples;Min_cycle;Max_cycle;Signal;HPM_P1;HPM_P2
2020/12/03 00:00:30;;;;;;;6.90;4.70;;;7.80;99.90;;;;;;5111235;27;20257;-73
2020/12/03 00:03:00;;;;;;;7.03;5.72;;;7.80;99.90;;;;;;5120966;28;20196;-74
2020/12/03 00:05:26;;;;;;;6.25;5.35;;;7.80;99.90;;;;;;5110787;27;20230;-74
2020/12/03 00:07:54;;;;;;;4.88;4.45;;;7.80;99.90;;;;;;5122797;28;20659;-74
2020/12/03 00:10:21;;;;;;;5.38;4.57;;;7.80;99.90;;;;;;5117055;27;20208;-73
2020/12/03 00:13:01;;;;;;;5.28;4.70;;;7.80;99.90;;;;;;5110981;28;20197;-74
2020/12/03 00:15:27;;;;;;;5.85;5.20;;;7.80;99.90;;;;;;5112633;27;20204;-74
2020/12/03 00:17:53;;;;;;;5.32;4.60;;;7.80;99.90;;;;;;5131173;27;20184;-74
2020/12/03 00:20:21;;;;;;;5.40;4.35;;;7.90;99.90;;;;;;5121953;27;20208;-73
2020/12/03 00:22:47;;;;;;;6.25;4.85;;;7.80;99.90;;;;;;5114726;28;20339;-73
2020/12/03 00:25:13;;;;;;;6.55;5.35;;;7.80;99.90;;;;;;5134480;27;20667;-74
2020/12/03 00:27:46;;;;;;;6.38;5.32;;;7.80;99.90;;;;;;5119087;27;20223;-74
2020/12/03 00:30:13;;;;;;;5.57;5.05;;;7.80;99.90;;;;;;5128448;27;20211;-74
2020/12/03 00:32:39;;;;;;;6.05;5.45;;;7.80;99.90;;;;;;5114807;27;20206;-73
2020/12/03 00:35:05;;;;;;;7.47;5.68;;;7.80;99.90;;;;;;5114468;27;20193;-74
2020/12/03 00:37:32;;;;;;;6.03;5.22;;;7.80;99.90;;;;;;5116270;27;20193;-74
2020/12/03 00:39:59;;;;;;;7.85;5.80;;;7.80;99.90;;;;;;5114281;27;20228;-74
2020/12/03 00:42:26;;;;;;;6.07;5.18;;;7.80;99.90;;;;;;5118473;27;20246;-74
2020/12/03 00:44:52;;;;;;;7.63;5.72;;;7.80;99.90;;;;;;5129626;27;20192;-74
2020/12/03 00:47:18;;;;;;;6.85;5.53;;;7.80;99.90;;;;;;5121131;27;20231;-74
2020/12/03 00:49:44;;;;;;;6.85;5.50;;;7.80;99.90;;;;;;5130946;27;20211;-74
2020/12/03 00:52:11;;;;;;;6.65;5.40;;;7.80;99.90;;;;;;5114328;27;20208;-74
2020/12/03 00:54:38;;;;;;;5.85;5.20;;;7.80;99.90;;;;;;5113237;27;20192;-74
2020/12/03 00:57:07;;;;;;;5.75;4.88;;;7.80;99.90;;;;;;5113439;27;20192;-74
2020/12/03 00:59:33;;;;;;;6.43;5.75;;;7.80;99.90;;;;;;5113793;28;20447;-74
2020/12/03 01:02:00;;;;;;;7.65;6.45;;;7.90;99.90;;;;;;5114297;28;20197;-75
2020/12/03 01:04:26;;;;;;;6.78;5.70;;;7.80;99.90;;;;;;5114492;28;20196;-75
2020/12/03 01:06:52;;;;;;;4.65;4.25;;;7.80;99.90;;;;;;5113482;27;20208;-74
2020/12/03 01:09:18;;;;;;;5.15;4.65;;;7.80;99.90;;;;;;5119774;27;20199;-74
2020/12/03 01:11:46;;;;;;;5.85;4.97;;;7.80;99.90;;;;;;5118152;27;20196;-74
2020/12/03 01:14:12;;;;;;;4.35;3.95;;;7.80;99.90;;;;;;5134841;27;20200;-75
2020/12/03 01:16:39;;;;;;;7.07;5.15;;;7.70;99.90;;;;;;5127879;27;20752;-74
2020/12/03 01:19:05;;;;;;;6.55;5.32;;;7.80;99.90;;;;;;5115142;27;20659;-74
2020/12/03 01:21:31;;;;;;;6.03;4.55;;;7.80;99.90;;;;;;5114480;27;20189;-74
2020/12/03 01:23:57;;;;;;;6.28;4.97;;;7.80;99.90;;;;;;5114043;27;20196;-74
2020/12/03 01:26:24;;;;;;;5.88;4.95;;;7.80;99.90;;;;;;5114105;28;20201;-74
2020/12/03 01:28:51;;;;;;;5.25;4.75;;;7.80;99.90;;;;;;5116004;27;20211;-74
2020/12/03 01:31:17;;;;;;;4.93;4.38;;;7.80;99.90;;;;;;5112764;27;20189;-74
2020/12/03 01:33:43;;;;;;;5.40;4.90;;;7.80;99.90;;;;;;5119293;27;20738;-74
2020/12/03 01:36:12;;;;;;;6.20;5.60;;;7.80;99.90;;;;;;5114131;28;20203;-74
2020/12/03 01:38:39;;;;;;;5.15;4.60;;;7.80;99.90;;;;;;5113732;27;20212;-74
2020/12/03 01:41:05;;;;;;;7.18;5.65;;;7.70;99.90;;;;;;5127844;27;20201;-74
2020/12/03 01:43:32;;;;;;;5.38;4.57;;;7.80;99.90;;;;;;5114566;27;20196;-74
2020/12/03 01:46:01;;;;;;;6.50;5.50;;;7.80;99.90;;;;;;5129844;27;20276;-74
2020/12/03 01:48:35;;;;;;;5.50;4.85;;;7.70;99.90;;;;;;5116450;27;20220;-74
2020/12/03 01:51:05;;;;;;;7.13;4.53;;;7.80;99.90;;;;;;5125624;27;20208;-74
2020/12/03 01:53:31;;;;;;;5.78;4.93;;;7.80;99.90;;;;;;5122088;27;20201;-74
2020/12/03 01:56:04;;;;;;;7.13;6.32;;;7.70;99.90;;;;;;5122523;27;20181;-75
2020/12/03 01:58:41;;;;;;;7.30;5.40;;;7.70;99.90;;;;;;5134249;27;20191;-75
2020/12/03 02:01:10;;;;;;;6.28;4.93;;;7.70;99.90;;;;;;5114420;27;20193;-75
2020/12/03 02:03:45;;;;;;;6.43;4.65;;;7.70;99.90;;;;;;5114425;27;20197;-75
2020/12/03 02:06:15;;;;;;;6.90;5.07;;;7.70;99.90;;;;;;5119205;27;20638;-75
2020/12/03 02:08:41;;;;;;;4.68;4.25;;;7.70;99.90;;;;;;5128641;27;20223;-75
2020/12/03 02:11:07;;;;;;;7.20;5.07;;;7.70;99.90;;;;;;5134040;27;20204;-75
2020/12/03 02:13:33;;;;;;;5.88;4.50;;;7.70;99.90;;;;;;5129637;27;20192;-75
2020/12/03 02:16:00;;;;;;;5.82;5.00;;;7.70;99.90;;;;;;5114341;27;20203;-75
2020/12/03 02:18:27;;;;;;;5.72;4.40;;;7.70;99.90;;;;;;5127621;27;20184;-75
2020/12/03 02:20:54;;;;;;;6.20;5.10;;;7.70;99.90;;;;;;5120037;27;20200;-75
2020/12/03 02:23:20;;;;;;;6.22;5.28;;;7.70;99.90;;;;;;5115391;27;20212;-75
2020/12/03 02:25:46;;;;;;;4.88;4.22;;;7.80;99.90;;;;;;5124876;27;20201;-74
2020/12/03 02:28:13;;;;;;;5.90;5.30;;;7.80;99.90;;;;;;5113167;27;20216;-74
2020/12/03 02:30:39;;;;;;;7.15;5.10;;;7.80;99.90;;;;;;5114531;27;20197;-74
2020/12/03 02:33:06;;;;;;;8.48;5.25;;;7.80;99.90;;;;;;5112843;27;20521;-74
2020/12/03 02:35:32;;;;;;;6.82;5.15;;;7.70;99.90;;;;;;5112911;27;20189;-73
2020/12/03 02:37:59;;;;;;;6.55;5.05;;;7.70;99.90;;;;;;5112809;28;20192;-73
2020/12/03 02:40:26;;;;;;;7.03;5.90;;;7.80;99.90;;;;;;5112053;28;20333;-73
2020/12/03 02:42:52;;;;;;;7.30;6.00;;;7.70;99.90;;;;;;5121171;27;20209;-74
2020/12/03 02:45:18;;;;;;;6.45;5.00;;;7.70;99.90;;;;;;5125689;27;20200;-73
2020/12/03 02:47:44;;;;;;;5.97;5.15;;;7.70;99.90;;;;;;5118600;27;20212;-74
2020/12/03 02:50:11;;;;;;;7.00;5.60;;;7.70;99.90;;;;;;5113460;28;20197;-74
2020/12/03 02:52:37;;;;;;;5.85;5.20;;;7.70;99.90;;;;;;5112112;27;20189;-73
2020/12/03 02:55:04;;;;;;;5.07;4.57;;;7.70;99.90;;;;;;5112527;28;20200;-74
2020/12/03 02:57:31;;;;;;;6.38;5.72;;;7.70;99.90;;;;;;5111968;28;20640;-73
2020/12/03 02:59:57;;;;;;;6.55;5.65;;;7.70;99.90;;;;;;5120379;27;20196;-74
2020/12/03 03:02:23;;;;;;;6.90;5.78;;;7.70;99.90;;;;;;5130816;27;20408;-74
2020/12/03 03:04:49;;;;;;;5.70;5.00;;;7.70;99.90;;;;;;5112458;28;20201;-74
2020/12/03 03:07:16;;;;;;;6.20;5.60;;;7.70;99.90;;;;;;5115191;28;20224;-74
2020/12/03 03:09:42;;;;;;;5.78;4.55;;;7.70;99.90;;;;;;5118844;27;20193;-73
2020/12/03 03:12:09;;;;;;;6.72;5.30;;;7.70;99.90;;;;;;5112073;28;20193;-74
2020/12/03 03:14:35;;;;;;;7.97;6.15;;;7.70;99.90;;;;;;5111500;28;20193;-74
2020/12/03 03:17:01;;;;;;;5.85;4.93;;;7.60;99.90;;;;;;5111978;28;20193;-74
2020/12/03 03:19:28;;;;;;;6.18;4.93;;;7.60;99.90;;;;;;5112395;28;20196;-75
2020/12/03 03:21:54;;;;;;;6.03;5.10;;;7.60;99.90;;;;;;5112026;28;20536;-75
2020/12/03 03:24:21;;;;;;;6.38;5.35;;;7.60;99.90;;;;;;5113211;28;20195;-74
2020/12/03 03:26:47;;;;;;;5.97;5.30;;;7.70;99.90;;;;;;5121201;28;20196;-75
2020/12/03 03:29:15;;;;;;;5.97;5.38;;;7.70;99.90;;;;;;5130661;27;20220;-74
2020/12/03 03:31:41;;;;;;;7.18;6.25;;;7.70;99.90;;;;;;5129575;27;20184;-74
2020/12/03 03:34:08;;;;;;;6.15;5.00;;;7.70;99.90;;;;;;5122492;28;20199;-74
2020/12/03 03:36:34;;;;;;;6.63;5.93;;;7.70;99.90;;;;;;5112178;28;20197;-75
2020/12/03 03:39:00;;;;;;;5.32;4.57;;;7.70;99.90;;;;;;5113144;28;20235;-74
2020/12/03 03:41:27;;;;;;;6.80;5.78;;;7.60;99.90;;;;;;5112138;28;20540;-75
2020/12/03 03:43:53;;;;;;;6.85;5.50;;;7.60;99.90;;;;;;5111878;28;20201;-74
2020/12/03 03:46:21;;;;;;;7.75;5.70;;;7.60;99.90;;;;;;5111992;28;20208;-74
2020/12/03 03:48:48;;;;;;;5.25;4.55;;;7.60;99.90;;;;;;5115896;28;20672;-74
2020/12/03 03:51:14;;;;;;;7.50;5.30;;;7.60;99.90;;;;;;5115351;27;20201;-74
2020/12/03 03:53:41;;;;;;;5.20;4.47;;;7.60;99.90;;;;;;5116991;27;20219;-74
2020/12/03 03:56:07;;;;;;;5.22;4.70;;;7.60;99.90;;;;;;5116826;27;20207;-74
2020/12/03 03:58:34;;;;;;;6.85;5.30;;;7.60;99.90;;;;;;5115764;28;20201;-74
2020/12/03 04:01:00;;;;;;;6.35;5.15;;;7.60;99.90;;;;;;5130486;27;20195;-74
2020/12/03 04:03:27;;;;;;;6.57;5.10;;;7.60;99.90;;;;;;5117930;27;20197;-74
2020/12/03 04:05:55;;;;;;;7.13;4.97;;;7.60;99.90;;;;;;5126288;27;20196;-74
2020/12/03 04:08:23;;;;;;;6.07;5.47;;;7.60;99.90;;;;;;5135876;27;20227;-74
2020/12/03 04:10:50;;;;;;;5.53;4.97;;;7.70;99.90;;;;;;5115528;27;20193;-75
2020/12/03 04:13:17;;;;;;;6.55;5.95;;;7.70;99.90;;;;;;5115329;28;20545;-75
2020/12/03 04:15:43;;;;;;;5.40;4.85;;;7.60;99.90;;;;;;5115412;28;20201;-75
2020/12/03 04:18:09;;;;;;;4.57;4.05;;;7.60;99.90;;;;;;5116422;27;20200;-75
2020/12/03 04:20:36;;;;;;;8.18;5.97;;;7.60;99.90;;;;;;5116342;27;20197;-75
2020/12/03 04:23:03;;;;;;;6.40;5.10;;;7.60;99.90;;;;;;5115410;28;20189;-75
2020/12/03 04:25:29;;;;;;;5.85;5.25;;;7.60;99.90;;;;;;5115087;27;20188;-75
2020/12/03 04:27:56;;;;;;;4.85;4.35;;;7.70;99.90;;;;;;5115136;28;20208;-75
2020/12/03 04:30:22;;;;;;;6.45;4.68;;;7.70;99.90;;;;;;5114691;28;20201;-75
2020/12/03 04:32:49;;;;;;;6.85;4.93;;;7.60;99.90;;;;;;5114766;28;20185;-74
2020/12/03 04:35:17;;;;;;;5.78;4.32;;;7.60;99.90;;;;;;5114178;27;20208;-74
2020/12/03 04:37:45;;;;;;;6.30;4.93;;;7.70;99.90;;;;;;5120960;27;20196;-74
2020/12/03 04:40:23;;;;;;;5.45;4.60;;;7.60;99.90;;;;;;5135211;27;20224;-74
2020/12/03 04:42:49;;;;;;;6.05;4.78;;;7.60;99.90;;;;;;5135422;27;20639;-74
2020/12/03 04:45:27;;;;;;;4.60;3.95;;;7.70;99.90;;;;;;5128139;27;20204;-74
2020/12/03 04:48:04;;;;;;;5.80;4.70;;;7.60;99.90;;;;;;5114721;27;20217;-74
2020/12/03 04:50:42;;;;;;;5.30;4.80;;;7.70;99.90;;;;;;5114924;27;20196;-74
2020/12/03 04:53:18;;;;;;;5.95;5.15;;;7.60;99.90;;;;;;5114451;27;20196;-73
2020/12/03 04:55:56;;;;;;;5.68;4.97;;;7.60;99.90;;;;;;5114546;28;20210;-73
2020/12/03 04:58:39;;;;;;;5.43;4.93;;;7.60;99.90;;;;;;5115701;27;20195;-74
2020/12/03 05:01:17;;;;;;;8.43;5.95;;;7.60;99.90;;;;;;5130146;27;20276;-73
2020/12/03 05:04:01;;;;;;;6.30;5.03;;;7.60;99.90;;;;;;5129171;27;20196;-73
2020/12/03 05:06:54;;;;;;;6.18;4.75;;;7.60;99.90;;;;;;5114336;28;20203;-73
2020/12/03 05:09:27;;;;;;;6.20;5.45;;;7.50;99.90;;;;;;5118006;27;20208;-73
2020/12/03 05:11:56;;;;;;;6.90;5.95;;;7.60;99.90;;;;;;5127620;27;20192;-73
2020/12/03 05:14:36;;;;;;;5.65;4.88;;;7.70;99.90;;;;;;5120921;27;20196;-73
2020/12/03 05:17:28;;;;;;;10.20;4.50;;;7.60;99.90;;;;;;5116494;27;20201;-74
2020/12/03 05:20:41;;;;;;;5.88;5.28;;;7.60;99.90;;;;;;5134649;27;20230;-74
2020/12/03 05:23:15;;;;;;;5.60;4.50;;;7.70;99.90;;;;;;5072545;28;20190;-73
2020/12/03 05:25:43;;;;;;;5.70;4.50;;;7.70;99.90;;;;;;5071370;28;20191;-73
2020/12/03 05:28:37;;;;;;;7.45;5.68;;;7.60;99.90;;;;;;5098888;28;20216;-73
2020/12/03 05:31:16;;;;;;;5.05;3.75;;;7.60;99.90;;;;;;5114550;27;20584;-73
2020/12/03 05:33:43;;;;;;;5.40;4.50;;;7.60;99.90;;;;;;5113816;28;20185;-73
2020/12/03 05:36:24;;;;;;;6.45;4.63;;;7.60;99.90;;;;;;5115128;27;20200;-73
2020/12/03 05:38:51;;;;;;;7.00;4.68;;;7.60;99.90;;;;;;5113328;27;20680;-73
2020/12/03 05:41:20;;;;;;;4.82;4.25;;;7.60;99.90;;;;;;5114723;27;20196;-73
2020/12/03 05:43:47;;;;;;;5.00;4.50;;;7.60;99.90;;;;;;5114140;27;20211;-73
2020/12/03 05:46:16;;;;;;;4.93;3.83;;;7.60;99.90;;;;;;5113580;27;20203;-73
2020/12/03 05:48:55;;;;;;;5.75;4.32;;;7.60;99.90;;;;;;5120384;27;20521;-73
2020/12/03 05:51:25;;;;;;;7.70;4.75;;;7.60;99.90;;;;;;5113090;27;20197;-72
2020/12/03 05:53:53;;;;;;;4.85;4.25;;;7.60;99.90;;;;;;5116489;27;20211;-71
2020/12/03 05:56:25;;;;;;;5.00;4.15;;;7.60;99.90;;;;;;5132512;27;20205;-72
2020/12/03 05:58:52;;;;;;;4.90;4.35;;;7.50;99.90;;;;;;5132175;27;20199;-71
2020/12/03 06:01:20;;;;;;;5.00;4.15;;;7.60;99.90;;;;;;5133912;27;20196;-72
2020/12/03 06:04:07;;;;;;;6.25;4.60;;;7.60;99.90;;;;;;5128250;27;20212;-72
2020/12/03 06:06:59;;;;;;;5.32;4.47;;;7.60;99.90;;;;;;5133220;27;20230;-73
2020/12/03 06:09:40;;;;;;;4.88;4.00;;;7.60;99.90;;;;;;5131974;27;20216;-73
2020/12/03 06:12:26;;;;;;;4.20;3.80;;;7.60;99.90;;;;;;5131466;27;20545;-73
2020/12/03 06:15:11;;;;;;;5.45;3.80;;;7.60;99.90;;;;;;5123178;27;20196;-72
2020/12/03 06:17:51;;;;;;;4.90;4.10;;;7.60;99.90;;;;;;5124495;27;20192;-73
2020/12/03 06:20:42;;;;;;;5.47;4.00;;;7.60;99.90;;;;;;5121870;27;20210;-73
2020/12/03 06:23:33;;;;;;;3.58;3.28;;;7.50;99.90;;;;;;5114474;27;20191;-72
2020/12/03 06:26:08;;;;;;;4.50;4.05;;;7.50;99.90;;;;;;5122245;27;20196;-72
2020/12/03 06:29:02;;;;;;;4.30;3.65;;;7.60;99.90;;;;;;5112894;27;20261;-73
2020/12/03 06:31:35;;;;;;;4.32;3.58;;;7.50;99.90;;;;;;5132159;27;20195;-74
2020/12/03 06:34:19;;;;;;;5.18;3.58;;;7.50;99.90;;;;;;5131968;27;20191;-74
2020/12/03 06:36:54;;;;;;;4.10;3.47;;;7.50;99.90;;;;;;5113369;27;20189;-74
2020/12/03 06:39:40;;;;;;;4.47;3.35;;;7.50;99.90;;;;;;5114441;27;20228;-74
2020/12/03 06:42:14;;;;;;;5.22;3.72;;;7.50;99.90;;;;;;5113596;28;20196;-74
2020/12/03 06:44:47;;;;;;;3.20;2.90;;;7.60;99.90;;;;;;5111214;27;20352;-74
2020/12/03 06:47:54;;;;;;;4.25;3.80;;;7.50;99.90;;;;;;5112388;27;20675;-74
2020/12/03 06:50:34;;;;;;;3.75;3.10;;;7.50;99.90;;;;;;5130101;27;20223;-74
2020/12/03 06:53:18;;;;;;;4.85;3.55;;;7.60;99.90;;;;;;5132894;27;20184;-74
2020/12/03 06:56:35;;;;;;;3.83;3.45;;;7.50;99.90;;;;;;5132958;27;20206;-74
2020/12/03 06:59:19;;;;;;;4.40;3.95;;;7.50;99.90;;;;;;5120901;27;20199;-74
2020/12/03 07:02:10;;;;;;;3.83;3.42;;;7.50;99.90;;;;;;5131524;27;20283;-74
2020/12/03 07:05:24;;;;;;;4.22;3.72;;;7.60;99.90;;;;;;5112594;28;20643;-74
2020/12/03 07:08:22;;;;;;;3.78;2.95;;;7.50;99.90;;;;;;5117632;28;20215;-74
2020/12/03 07:11:16;;;;;;;4.40;4.00;;;7.50;99.90;;;;;;5117121;28;20189;-74
2020/12/03 07:14:25;;;;;;;4.80;3.47;;;7.50;99.90;;;;;;5127768;27;20809;-74
2020/12/03 07:17:09;;;;;;;4.05;3.30;;;7.50;99.90;;;;;;5114190;28;20616;-74
2020/12/03 07:19:49;;;;;;;4.40;3.72;;;7.60;99.90;;;;;;5111953;28;20192;-73
2020/12/03 07:22:21;;;;;;;5.03;4.00;;;7.60;99.90;;;;;;5121301;28;20191;-74
2020/12/03 07:24:50;;;;;;;3.63;2.92;;;7.60;99.90;;;;;;5114337;27;20197;-74
2020/12/03 07:27:38;;;;;;;3.58;3.15;;;7.60;99.90;;;;;;5116193;28;20596;-74
2020/12/03 07:30:20;;;;;;;3.70;3.30;;;7.60;99.90;;;;;;5126749;27;20675;-75
2020/12/03 07:32:52;;;;;;;4.35;3.83;;;7.60;99.90;;;;;;5116484;27;20192;-75
2020/12/03 07:35:29;;;;;;;2.92;2.60;;;7.60;99.90;;;;;;5123609;27;20221;-74
2020/12/03 07:38:04;;;;;;;3.90;3.45;;;7.60;99.90;;;;;;5116096;27;20189;-74
2020/12/03 07:40:31;;;;;;;3.83;3.47;;;7.60;99.90;;;;;;5117152;27;20189;-73
2020/12/03 07:43:03;;;;;;;5.78;3.45;;;7.60;99.90;;;;;;5116104;27;20211;-74
2020/12/03 07:45:42;;;;;;;3.25;2.95;;;7.60;99.90;;;;;;5134675;27;20188;-74
2020/12/03 07:48:13;;;;;;;4.95;3.30;;;7.60;99.90;;;;;;5126952;27;20228;-74
2020/12/03 07:50:48;;;;;;;3.10;2.80;;;7.60;99.90;;;;;;5114634;28;20203;-74
2020/12/03 07:53:23;;;;;;;4.60;3.15;;;7.50;99.90;;;;;;5139974;27;20281;-74
2020/12/03 07:55:49;;;;;;;4.50;3.45;;;7.60;99.90;;;;;;5134359;27;20195;-74
2020/12/03 07:58:35;;;;;;;3.22;2.80;;;7.60;99.90;;;;;;5120828;27;20548;-75
2020/12/03 08:01:03;;;;;;;5.32;3.78;;;7.60;99.90;;;;;;5136003;27;20295;-75
2020/12/03 08:03:47;;;;;;;3.83;2.80;;;7.60;99.90;;;;;;5132565;27;20200;-75
2020/12/03 08:06:19;;;;;;;4.53;3.13;;;7.50;99.90;;;;;;5134561;27;20227;-75
2020/12/03 08:08:48;;;;;;;3.17;2.88;;;7.60;99.90;;;;;;5131456;27;20204;-75
2020/12/03 08:11:42;;;;;;;5.20;3.85;;;7.60;99.90;;;;;;5136237;27;20257;-75
2020/12/03 08:14:37;;;;;;;3.80;2.85;;;7.50;99.90;;;;;;5115298;27;20560;-75
2020/12/03 08:17:06;;;;;;;3.40;2.92;;;7.60;99.90;;;;;;5115182;28;20181;-75
2020/12/03 08:19:36;;;;;;;3.97;2.50;;;7.60;99.90;;;;;;5114845;28;20204;-77
2020/12/03 08:22:02;;;;;;;3.03;2.47;;;7.60;99.90;;;;;;5129448;27;20192;-77
2020/12/03 08:24:31;;;;;;;4.85;3.42;;;7.60;99.90;;;;;;5124752;27;20188;-77
2020/12/03 08:26:59;;;;;;;3.10;2.90;;;7.60;99.90;;;;;;5115528;27;20205;-74
2020/12/03 08:29:47;;;;;;;4.00;3.28;;;7.60;99.90;;;;;;5117334;27;20220;-76
2020/12/03 08:32:13;;;;;;;3.40;3.10;;;7.60;99.90;;;;;;5115651;27;20203;-76
2020/12/03 08:34:42;;;;;;;3.22;2.92;;;7.60;99.90;;;;;;5128073;27;20497;-76
2020/12/03 08:37:11;;;;;;;3.22;2.92;;;7.60;99.90;;;;;;5148451;27;20191;-75
2020/12/03 08:39:38;;;;;;;4.05;2.97;;;7.60;99.90;;;;;;5134324;27;20227;-74
2020/12/03 08:42:06;;;;;;;4.82;3.05;;;7.60;99.90;;;;;;5140207;27;20200;-74
2020/12/03 08:44:34;;;;;;;4.57;3.25;;;7.60;99.90;;;;;;5121593;27;20204;-75
2020/12/03 08:47:06;;;;;;;3.80;2.90;;;7.60;99.90;;;;;;5117413;27;20224;-75
2020/12/03 08:49:32;;;;;;;3.33;3.00;;;7.60;99.90;;;;;;5117551;27;20201;-75
2020/12/03 08:51:59;;;;;;;4.85;4.07;;;7.60;99.90;;;;;;5114353;27;20204;-75
2020/12/03 08:54:26;;;;;;;4.10;3.33;;;7.60;99.90;;;;;;5134820;27;20200;-75
2020/12/03 08:56:56;;;;;;;3.72;3.40;;;7.60;99.90;;;;;;5135093;27;20627;-75
2020/12/03 08:59:29;;;;;;;3.25;2.78;;;7.60;99.90;;;;;;5135008;27;20195;-76
2020/12/03 09:02:07;;;;;;;4.68;4.20;;;7.60;99.90;;;;;;5123880;27;20203;-75
2020/12/03 09:04:36;;;;;;;4.13;3.72;;;7.60;99.90;;;;;;5114419;28;20220;-76
2020/12/03 09:07:05;;;;;;;4.60;4.20;;;7.60;99.90;;;;;;5131703;27;20203;-75
2020/12/03 09:09:33;;;;;;;4.63;3.70;;;7.60;99.90;;;;;;5129919;27;20216;-75
2020/12/03 09:12:00;;;;;;;2.55;2.35;;;7.60;99.90;;;;;;5114379;27;20193;-75
2020/12/03 09:14:27;;;;;;;4.25;3.80;;;7.60;99.90;;;;;;5118088;27;20501;-75
2020/12/03 09:16:59;;;;;;;3.70;3.40;;;7.60;99.90;;;;;;5127037;27;20193;-75
2020/12/03 09:19:25;;;;;;;3.90;3.47;;;7.50;99.90;;;;;;5114389;28;20187;-75
2020/12/03 09:21:52;;;;;;;4.65;3.70;;;7.50;99.90;;;;;;5117492;27;20212;-75
2020/12/03 09:24:22;;;;;;;5.07;3.33;;;7.50;99.90;;;;;;5114191;27;20196;-75
2020/12/03 09:26:49;;;;;;;5.65;3.70;;;7.50;99.90;;;;;;5115299;27;20220;-75
2020/12/03 09:29:15;;;;;;;3.97;3.58;;;7.50;99.90;;;;;;5113705;28;20686;-75
2020/12/03 09:31:41;;;;;;;4.70;3.67;;;7.50;99.90;;;;;;5114328;28;20192;-75
2020/12/03 09:34:09;;;;;;;3.58;3.15;;;7.50;99.90;;;;;;5114750;27;20197;-72
2020/12/03 09:36:37;;;;;;;4.88;3.92;;;7.50;99.90;;;;;;5128321;27;20189;-72
2020/12/03 09:39:04;;;;;;;4.18;3.72;;;7.50;99.90;;;;;;5113579;28;20220;-73
2020/12/03 09:41:32;;;;;;;3.38;3.05;;;7.50;99.90;;;;;;5113860;27;20207;-72
2020/12/03 09:44:02;;;;;;;4.10;3.60;;;7.50;99.90;;;;;;5116525;27;20647;-72
2020/12/03 09:46:32;;;;;;;3.80;3.47;;;7.50;99.90;;;;;;5113456;28;20201;-72
2020/12/03 09:48:58;;;;;;;4.15;3.75;;;7.50;99.90;;;;;;5125892;27;20208;-72
2020/12/03 09:51:25;;;;;;;3.35;3.05;;;7.50;99.90;;;;;;5115797;27;20200;-72
2020/12/03 09:53:52;;;;;;;5.13;4.32;;;7.60;99.90;;;;;;5113870;27;20203;-72
2020/12/03 09:56:19;;;;;;;3.65;3.35;;;7.50;99.90;;;;;;5130670;27;20196;-72
2020/12/03 09:58:47;;;;;;;5.30;3.58;;;7.60;99.90;;;;;;5127616;27;20241;-72
2020/12/03 10:01:15;;;;;;;5.25;3.08;;;7.60;99.90;;;;;;5133555;27;20531;-72
2020/12/03 10:04:21;;;;;;;3.90;3.25;;;7.60;99.90;;;;;;5120670;27;20200;-72
2020/12/03 10:06:55;;;;;;;3.63;3.33;;;7.50;99.90;;;;;;5112805;28;20177;-72
2020/12/03 10:09:46;;;;;;;3.60;3.30;;;7.60;99.90;;;;;;5112395;28;20231;-74
2020/12/03 10:12:42;;;;;;;3.63;3.10;;;7.60;99.90;;;;;;5112083;28;20536;-74
2020/12/03 10:15:22;;;;;;;4.88;4.05;;;7.60;99.90;;;;;;5113206;28;20601;-74
2020/12/03 10:18:07;;;;;;;4.13;3.72;;;7.60;99.90;;;;;;5112774;27;20197;-72
2020/12/03 10:20:35;;;;;;;4.80;3.50;;;7.60;99.90;;;;;;5122730;27;20198;-73
2020/12/03 10:23:15;;;;;;;5.80;4.32;;;7.60;99.90;;;;;;5113113;28;20291;-72
2020/12/03 10:25:50;;;;;;;5.78;3.60;;;7.60;99.90;;;;;;5112995;28;20180;-72
2020/12/03 10:28:22;;;;;;;4.85;3.50;;;7.60;99.90;;;;;;5112501;28;20245;-72
2020/12/03 10:30:53;;;;;;;4.35;3.13;;;7.60;99.90;;;;;;5112817;28;20189;-72
2020/12/03 10:33:22;;;;;;;4.22;3.83;;;7.60;99.90;;;;;;5113021;27;20200;-72
2020/12/03 10:35:50;;;;;;;4.47;3.38;;;7.60;99.90;;;;;;5116642;27;20513;-73
2020/12/03 10:38:20;;;;;;;4.40;3.88;;;7.60;99.90;;;;;;5125549;27;20195;-73
2020/12/03 10:40:53;;;;;;;4.60;3.70;;;7.60;99.90;;;;;;5133304;27;20180;-73
2020/12/03 10:43:25;;;;;;;4.45;4.05;;;7.60;99.90;;;;;;5128045;27;20197;-73
2020/12/03 10:45:56;;;;;;;3.22;2.92;;;7.60;99.90;;;;;;5117580;27;20212;-73
2020/12/03 10:48:25;;;;;;;5.32;3.75;;;7.60;99.90;;;;;;5112539;28;20514;-73
2020/12/03 10:50:54;;;;;;;3.65;3.35;;;7.60;99.90;;;;;;5112592;28;20304;-73
2020/12/03 10:53:25;;;;;;;4.55;3.10;;;7.60;99.90;;;;;;5112388;28;20660;-73
2020/12/03 10:55:58;;;;;;;3.50;3.20;;;7.60;99.90;;;;;;5112351;28;20200;-73
2020/12/03 10:58:38;;;;;;;4.07;3.08;;;7.60;99.90;;;;;;5116374;27;20219;-74
2020/12/03 11:01:19;;;;;;;5.75;2.85;;;7.60;99.90;;;;;;5126826;27;20188;-72
2020/12/03 11:03:46;;;;;;;6.78;3.70;;;7.60;99.90;;;;;;5123993;27;20204;-71
2020/12/03 11:06:14;;;;;;;4.75;3.65;;;7.60;99.90;;;;;;5131908;28;20659;-73
2020/12/03 11:08:41;;;;;;;4.57;3.90;;;7.60;99.90;;;;;;5127501;27;20215;-73
2020/12/03 11:11:09;;;;;;;4.40;3.45;;;7.60;99.90;;;;;;5124944;27;20192;-73
2020/12/03 11:13:36;;;;;;;4.10;3.70;;;7.70;99.90;;;;;;5125772;28;20200;-74
2020/12/03 11:16:04;;;;;;;3.55;3.05;;;7.70;99.90;;;;;;5112131;28;20538;-73
2020/12/03 11:18:39;;;;;;;5.30;4.10;;;7.70;99.90;;;;;;5113137;28;20517;-73
2020/12/03 11:21:14;;;;;;;5.30;4.32;;;7.70;99.90;;;;;;5111680;28;20193;-74
2020/12/03 11:23:53;;;;;;;5.45;4.38;;;7.70;99.90;;;;;;5117174;28;20203;-73
2020/12/03 11:26:19;;;;;;;5.50;4.10;;;7.70;99.90;;;;;;5131783;27;20785;-73
2020/12/03 11:28:45;;;;;;;6.78;5.30;;;7.80;99.90;;;;;;5131162;27;20228;-73
2020/12/03 11:31:12;;;;;;;6.20;4.72;;;7.80;99.90;;;;;;5115145;27;20196;-73
2020/12/03 11:33:41;;;;;;;4.25;3.80;;;7.80;99.90;;;;;;5121341;28;20204;-74
2020/12/03 11:36:10;;;;;;;5.47;3.83;;;7.80;99.90;;;;;;5129347;27;20219;-73
2020/12/03 11:38:38;;;;;;;4.95;4.13;;;7.90;99.90;;;;;;5111183;28;20212;-73
2020/12/03 11:41:09;;;;;;;5.60;3.95;;;7.90;99.90;;;;;;5130037;28;20189;-73
2020/12/03 11:43:52;;;;;;;8.38;3.92;;;7.90;99.90;;;;;;5116732;27;20533;-73
2020/12/03 11:49:03;;;;;;;4.45;3.63;;;7.90;99.90;;;;;;5120403;28;20678;-73
2020/12/03 11:51:31;;;;;;;7.22;4.40;;;7.90;99.90;;;;;;5121918;27;20200;-73
2020/12/03 11:54:00;;;;;;;6.65;4.30;;;7.90;99.90;;;;;;5130121;27;20192;-73
2020/12/03 11:56:28;;;;;;;4.28;3.78;;;7.90;99.90;;;;;;5111886;28;20192;-73
2020/12/03 11:59:09;;;;;;;4.55;3.80;;;7.90;99.90;;;;;;5111537;28;20225;-73
2020/12/03 12:01:35;;;;;;;4.90;4.40;;;8.00;99.90;;;;;;5111593;28;20212;-72
2020/12/03 12:04:02;;;;;;;4.55;3.75;;;7.90;99.90;;;;;;5118566;28;20192;-73
2020/12/03 12:06:35;;;;;;;5.22;4.55;;;8.00;99.90;;;;;;5124015;27;20209;-73
2020/12/03 12:09:09;;;;;;;6.03;4.53;;;8.00;99.90;;;;;;5129691;28;20312;-73
2020/12/03 12:11:39;;;;;;;6.70;4.75;;;8.00;99.90;;;;;;5133498;27;20230;-73
2020/12/03 12:14:05;;;;;;;5.80;4.40;;;8.00;99.90;;;;;;5135688;27;20655;-73
2020/12/03 12:16:32;;;;;;;4.53;4.13;;;8.00;99.90;;;;;;5123179;27;20200;-73
2020/12/03 12:18:58;;;;;;;4.43;4.03;;;8.00;99.90;;;;;;5115075;28;20208;-73
2020/12/03 12:21:28;;;;;;;4.43;3.47;;;8.10;99.90;;;;;;5123987;27;20196;-73
2020/12/03 12:23:54;;;;;;;4.80;3.72;;;8.00;99.90;;;;;;5115466;28;20213;-73
2020/12/03 12:26:20;;;;;;;5.22;3.90;;;8.00;99.90;;;;;;5114801;28;20238;-73
2020/12/03 12:28:46;;;;;;;5.88;4.70;;;8.00;99.90;;;;;;5115088;28;20216;-73
2020/12/03 12:31:15;;;;;;;3.58;3.25;;;8.00;99.90;;;;;;5125818;27;20204;-73
2020/12/03 12:33:41;;;;;;;5.55;4.47;;;8.00;99.90;;;;;;5133925;27;20224;-73
2020/12/03 12:36:08;;;;;;;4.88;4.10;;;8.00;99.90;;;;;;5135228;27;20639;-73
2020/12/03 12:38:35;;;;;;;5.40;4.32;;;8.00;99.90;;;;;;5133134;27;20543;-73
2020/12/03 12:41:02;;;;;;;5.70;4.07;;;8.00;99.90;;;;;;5134424;27;20203;-72
2020/12/03 12:43:28;;;;;;;5.85;4.20;;;8.00;99.90;;;;;;5135216;27;20196;-72
2020/12/03 12:45:54;;;;;;;7.72;6.43;;;8.00;99.90;;;;;;5125054;27;20458;-73
2020/12/03 12:48:21;;;;;;;9.63;5.57;;;7.70;99.90;;;;;;5114566;28;20207;-74
2020/12/03 12:50:47;;;;;;;9.18;5.32;;;7.70;99.90;;;;;;5114547;27;20197;-73
2020/12/03 12:53:13;;;;;;;6.07;5.38;;;7.80;99.90;;;;;;5114637;28;20536;-73
2020/12/03 12:55:40;;;;;;;6.70;5.70;;;7.90;99.90;;;;;;5114943;28;20193;-74
2020/12/03 12:58:07;;;;;;;5.82;5.20;;;7.90;99.90;;;;;;5114801;27;20826;-73
2020/12/03 13:00:33;;;;;;;6.20;5.40;;;8.00;99.90;;;;;;5133436;27;20319;-72
2020/12/03 13:02:59;;;;;;;6.53;5.30;;;8.00;99.90;;;;;;5124865;27;20234;-73
2020/12/03 13:05:25;;;;;;;7.03;5.68;;;8.00;99.90;;;;;;5114151;28;20197;-73
2020/12/03 13:07:51;;;;;;;5.75;4.65;;;8.00;99.90;;;;;;5121772;27;20672;-73
2020/12/03 13:10:18;;;;;;;6.35;5.75;;;8.00;99.90;;;;;;5134856;27;20222;-73
2020/12/03 13:12:45;;;;;;;5.22;4.25;;;8.00;99.90;;;;;;5133318;27;20234;-73
2020/12/03 13:15:11;;;;;;;6.25;4.68;;;8.00;99.90;;;;;;5127187;27;20227;-72
2020/12/03 13:17:38;;;;;;;11.68;4.22;;;8.00;99.90;;;;;;5114054;28;20201;-73
2020/12/03 13:20:04;;;;;;;11.30;4.18;;;8.00;99.90;;;;;;5114377;27;20189;-73
2020/12/03 13:22:31;;;;;;;5.55;4.35;;;8.00;99.90;;;;;;5113505;28;20207;-73